Liberal, KS

3:05 AM CDT on April 26, 2017 (GMT -0500)
Liberal Municipal

Weather History for KLBL - September, 2013

Change the Weather History Date:

Wednesday, September 25, 2013

  Actual Average Record
Temperature  
Mean Temperature 72 °F -  
Max Temperature 91 °F 82 °F 98 °F (1984)
Min Temperature 53 °F 51 °F 30 °F (2000)
Cooling Degree Days 7    
Growing Degree Days 22 (Base 50)    
Moisture  
Dew Point 44 °F    
Average Humidity 40    
Maximum Humidity 67    
Minimum Humidity 19    
Precipitation  
Precipitation 0.00 in - - ()
Sea Level Pressure  
Sea Level Pressure 29.83 in    
Wind  
Wind Speed 14 mph (SSE)    
Max Wind Speed 30 mph    
Max Gust Speed 38 mph    
Visibility 10 miles    
Events      
Averages and records for this station are not official NWS values.
T = Trace of Precipitation, MM = Missing Value Source: NWS Daily Summary

Daily Weather History Graph

Daily Weather History Graph

Search for Another Location

Airport or City:

Trip Planner

Search our weather history database for the weather conditions in past years. The results will help you decide how hot, cold, wet, or windy it might be!

Date:

Astronomy

Sep. 25, 2013 Rise Set
Actual Time 7:34 AM CDT 7:35 PM CDT
Civil Twilight 7:08 AM CDT 8:01 PM CDT
Nautical Twilight 6:38 AM CDT 8:31 PM CDT
Astronomical Twilight 6:07 AM CDT 9:02 PM CDT
Moon 11:51 PM CDT (9/25) 1:34 PM CDT (9/25)
Length of Visible Light 12h 53m
Length of Day
12h 01m
Waning Gibbous, 64% of the Moon is Illuminated
Sep 25
Waning Gibbous
Sep 26
Last Quarter
Oct 4
New
Oct 11
First Quarter
Oct 18
Full

Hourly Weather History & Observations

Time (CDT) Temp. Dew Point Humidity Pressure Visibility Wind Dir Wind Speed Gust Speed Precip Events Conditions
12:15 AM 60.8 °F 37.4 °F 42% 29.99 in 10.0 mi SE 8.1 mph - N/A   Clear
12:35 AM 60.8 °F 37.4 °F 42% 29.98 in 10.0 mi ESE 6.9 mph - N/A   Clear
12:55 AM 60.8 °F 37.4 °F 42% 29.98 in 10.0 mi ESE 8.1 mph - N/A   Clear
1:15 AM 60.8 °F 37.4 °F 42% 29.98 in 10.0 mi SE 9.2 mph - N/A   Clear
1:35 AM 57.2 °F 35.6 °F 44% 29.98 in 10.0 mi South 9.2 mph - N/A   Clear
1:55 AM 57.2 °F 37.4 °F 48% 29.97 in 10.0 mi South 9.2 mph - N/A   Clear
2:15 AM 55.4 °F 37.4 °F 51% 29.97 in 10.0 mi South 5.8 mph - N/A   Clear
2:35 AM 55.4 °F 37.4 °F 51% 29.96 in 10.0 mi SSE 5.8 mph - N/A   Clear
2:55 AM 55.4 °F 39.2 °F 54% 29.95 in 10.0 mi SSE 6.9 mph - N/A   Clear
3:15 AM 57.2 °F 39.2 °F 51% 29.95 in 10.0 mi SSE 6.9 mph - N/A   Clear
3:35 AM 55.4 °F 39.2 °F 54% 29.94 in 10.0 mi SSE 5.8 mph - N/A   Clear
3:55 AM 53.6 °F 39.2 °F 58% 29.93 in 10.0 mi South 5.8 mph - N/A   Clear
4:15 AM 55.4 °F 39.2 °F 54% 29.93 in 10.0 mi SSE 5.8 mph - N/A   Clear
4:35 AM 53.6 °F 39.2 °F 58% 29.93 in 10.0 mi SE 8.1 mph - N/A   Clear
4:55 AM 53.6 °F 39.2 °F 58% 29.92 in 10.0 mi SE 8.1 mph - N/A   Clear
5:15 AM 53.6 °F 39.2 °F 58% 29.92 in 10.0 mi SSE 9.2 mph - N/A   Clear
5:35 AM 55.4 °F 41.0 °F 58% 29.92 in 10.0 mi SSE 5.8 mph - N/A   Clear
5:55 AM 53.6 °F 39.2 °F 58% 29.92 in 10.0 mi SE 6.9 mph - N/A   Clear
6:15 AM 53.6 °F 39.2 °F 58% 29.91 in 10.0 mi SE 9.2 mph - N/A   Clear
6:35 AM 53.6 °F 41.0 °F 62% 29.91 in 10.0 mi SE 9.2 mph - N/A   Clear
6:55 AM 53.6 °F 41.0 °F 62% 29.91 in 10.0 mi SE 10.4 mph - N/A   Clear
7:15 AM 53.6 °F 41.0 °F 62% 29.91 in 10.0 mi SE 9.2 mph - N/A   Clear
7:35 AM 53.6 °F 41.0 °F 62% 29.90 in 10.0 mi SE 10.4 mph - N/A   Clear
7:55 AM 53.6 °F 42.8 °F 67% 29.90 in 10.0 mi SE 9.2 mph - N/A   Clear
8:15 AM 55.4 °F 42.8 °F 63% 29.91 in 10.0 mi SSE 9.2 mph - N/A   Clear
8:35 AM 57.2 °F 44.6 °F 63% 29.91 in 10.0 mi SSE 12.7 mph - N/A   Clear
8:55 AM 60.8 °F 46.4 °F 59% 29.91 in 10.0 mi South 13.8 mph - N/A   Clear
9:15 AM 64.4 °F 46.4 °F 52% 29.91 in 10.0 mi South 15.0 mph - N/A   Clear
9:35 AM 66.2 °F 48.2 °F 52% 29.90 in 10.0 mi South 18.4 mph 23.0 mph N/A   Clear
9:55 AM 69.8 °F 48.2 °F 46% 29.90 in 10.0 mi South 17.3 mph - N/A   Clear
10:15 AM 71.6 °F 50.0 °F 46% 29.90 in 10.0 mi South 20.7 mph - N/A   Clear
10:35 AM 73.4 °F 50.0 °F 44% 29.90 in 10.0 mi South 20.7 mph 29.9 mph N/A   Clear
10:55 AM 75.2 °F 50.0 °F 41% 29.89 in 10.0 mi South 23.0 mph 31.1 mph N/A   Clear
11:15 AM 78.8 °F 51.8 °F 39% - 10.0 mi South 25.3 mph 32.2 mph N/A   Clear
11:35 AM 80.6 °F 51.8 °F 37% 29.86 in 10.0 mi South 27.6 mph 32.2 mph N/A   Clear
11:55 AM 80.6 °F 50.0 °F 34% 29.85 in 10.0 mi South 24.2 mph 32.2 mph N/A   Clear
12:15 PM 82.4 °F 50.0 °F 32% 29.85 in 10.0 mi SSW 25.3 mph 32.2 mph N/A   Clear
12:35 PM 82.4 °F 50.0 °F 32% 29.83 in 10.0 mi South 28.8 mph 33.4 mph N/A   Clear
12:55 PM 84.2 °F 50.0 °F 30% 29.82 in 10.0 mi South 28.8 mph 34.5 mph N/A   Clear
1:15 PM 86.0 °F 50.0 °F 29% 29.81 in 10.0 mi South 29.9 mph 36.8 mph N/A   Clear
1:35 PM 87.8 °F 48.2 °F 25% 29.80 in 10.0 mi SSW 27.6 mph 33.4 mph N/A   Clear
1:55 PM 87.8 °F 48.2 °F 25% 29.79 in 10.0 mi South 26.5 mph 34.5 mph N/A   Clear
2:15 PM 87.8 °F 48.2 °F 25% 29.78 in 10.0 mi South 24.2 mph 34.5 mph N/A   Clear
2:35 PM 89.6 °F 48.2 °F 24% 29.77 in 10.0 mi SSW 26.5 mph 33.4 mph N/A   Clear
2:55 PM 89.6 °F 48.2 °F 24% 29.76 in 10.0 mi South 23.0 mph 34.5 mph N/A   Clear
3:15 PM 89.6 °F 46.4 °F 22% 29.75 in 10.0 mi South 28.8 mph 34.5 mph N/A   Clear
3:35 PM 89.6 °F 46.4 °F 22% 29.74 in 10.0 mi South 27.6 mph 33.4 mph N/A   Clear
3:55 PM 91.4 °F 44.6 °F 20% 29.73 in 10.0 mi South 27.6 mph 35.7 mph N/A   Clear
4:15 PM 89.6 °F 44.6 °F 21% 29.73 in 10.0 mi South 27.6 mph 35.7 mph N/A   Clear
4:35 PM 89.6 °F 44.6 °F 21% 29.72 in 10.0 mi South 29.9 mph 36.8 mph N/A   Clear
4:55 PM 89.6 °F 44.6 °F 21% 29.72 in 10.0 mi South 26.5 mph 38.0 mph N/A   Clear
5:15 PM 89.6 °F 44.6 °F 21% 29.72 in 10.0 mi SSW 25.3 mph 35.7 mph N/A   Clear
5:35 PM 89.6 °F 42.8 °F 20% 29.71 in 10.0 mi South 28.8 mph 32.2 mph N/A   Clear
5:55 PM 89.6 °F 42.8 °F 20% 29.71 in 10.0 mi South 28.8 mph 32.2 mph N/A   Clear
6:15 PM 89.6 °F 42.8 °F 20% 29.71 in 10.0 mi South 27.6 mph 36.8 mph N/A   Clear
6:35 PM 87.8 °F 42.8 °F 21% 29.70 in 10.0 mi South 27.6 mph 34.5 mph N/A   Clear
6:55 PM 87.8 °F 41.0 °F 19% 29.70 in 10.0 mi South 19.6 mph 31.1 mph N/A   Clear
7:15 PM 84.2 °F 42.8 °F 23% 29.70 in 10.0 mi South 18.4 mph 23.0 mph N/A   Clear
7:35 PM 82.4 °F 42.8 °F 25% 29.69 in 10.0 mi South 23.0 mph 27.6 mph N/A   Clear
7:55 PM 80.6 °F 42.8 °F 26% 29.69 in 10.0 mi SSE 16.1 mph 25.3 mph N/A   Clear
8:15 PM 78.8 °F 44.6 °F 30% 29.69 in 10.0 mi SSE 20.7 mph 26.5 mph N/A   Clear
8:35 PM 78.8 °F 44.6 °F 30% 29.69 in 10.0 mi SSE 19.6 mph 25.3 mph N/A   Clear
8:55 PM 77.0 °F 44.6 °F 32% 29.69 in 10.0 mi SSE 17.3 mph - N/A   Clear
9:15 PM 75.2 °F 42.8 °F 31% 29.70 in 10.0 mi SSE 17.3 mph 23.0 mph N/A   Clear
9:35 PM 73.4 °F 44.6 °F 36% 29.71 in 10.0 mi South 16.1 mph - N/A   Clear
9:55 PM 73.4 °F 44.6 °F 36% 29.72 in 10.0 mi SSE 12.7 mph - N/A   Clear
10:15 PM 73.4 °F 44.6 °F 36% 29.71 in 10.0 mi SSE 17.3 mph 23.0 mph N/A   Clear
10:35 PM 73.4 °F 44.6 °F 36% 29.71 in 10.0 mi SSE 15.0 mph - N/A   Clear
10:55 PM 73.4 °F 44.6 °F 36% 29.71 in 10.0 mi SSE 17.3 mph - N/A   Clear
11:15 PM 73.4 °F 42.8 °F 33% 29.71 in 10.0 mi SSE 16.1 mph - N/A   Clear
11:35 PM 71.6 °F 42.8 °F 35% 29.71 in 10.0 mi SSE 17.3 mph - N/A   Clear
11:55 PM 71.6 °F 42.8 °F 35% 29.71 in 10.0 mi SSE 16.1 mph - N/A   Clear